Terminal Aerodrome Forecast
Issued by NWS

Home | Current Version | Previous Version | Text Only | Print | Product List | Glossary On
Versions: 1 2 3 4 5 6 7 8 9 10 11 12 13
317
FTUS42 TJSJ 182339
TAFJPS
TAF
TJPS 182339Z 1900/1924 15010KT P6SM SCT030 BKN060
     FM190300 07005KT P6SM FEW030 SCT120
     FM191500 13010KT P6SM SCT030
      AMD NOT SKED TIL 190300=

USA.gov is the U.S. government's official web portal to all federal, state and local government web resources and services.